CWLI

Liverpool Bay Airport

Northwest Territories, Canada
METAR CWLI 201600Z AUTO 29008KT ////SM //// OVC002 04/04 A2991
Observed Flight Rules
Aug-20 @ 16:00 UTC (26 minutes ago)
Wind Clouds
290° at 8 knots
  • Overcast at 200' AGL
Temperatures Readings
Current 4°C / 39°F
Dewpoint 4°C / 39°F
Humidity 100%
Altimeter 29.91" Hg
Pressure 1013 hPa
Elevation 102
METAR CWLI 201600Z AUTO 29008KT ////SM //// OVC002 04/04 A2991
Observed Flight Rules
Aug-20 @ 16:00 UTC
(26 minutes ago)
Wind
290° at 8 knots
Clouds
  • Overcast at 200' AGL
Temperature Dewpoint
4°C / 39°F 4°C / 39°F
Humidity Altimeter Pressure
100% 29.91" Hg 1013 hPa